sensor_id;sensor_type;location;lat;lon;timestamp;P1;durP1;ratioP1;P2;durP2;ratioP2
16954;SDS011;8594;52.052;8.354;2022-12-05T00:00:25;86.67;;;28.30;;
16954;SDS011;8594;52.052;8.354;2022-12-05T00:02:52;82.23;;;28.63;;
16954;SDS011;8594;52.052;8.354;2022-12-05T00:05:20;90.50;;;28.97;;
16954;SDS011;8594;52.052;8.354;2022-12-05T00:07:47;85.03;;;29.90;;
16954;SDS011;8594;52.052;8.354;2022-12-05T00:10:14;85.93;;;29.23;;
16954;SDS011;8594;52.052;8.354;2022-12-05T00:12:41;80.10;;;30.10;;
16954;SDS011;8594;52.052;8.354;2022-12-05T00:15:08;89.03;;;29.70;;
16954;SDS011;8594;52.052;8.354;2022-12-05T00:17:36;87.90;;;30.10;;
16954;SDS011;8594;52.052;8.354;2022-12-05T00:20:05;93.77;;;31.10;;
16954;SDS011;8594;52.052;8.354;2022-12-05T00:22:35;81.97;;;30.97;;
16954;SDS011;8594;52.052;8.354;2022-12-05T00:25:04;87.07;;;28.83;;
16954;SDS011;8594;52.052;8.354;2022-12-05T00:27:32;86.03;;;28.97;;
16954;SDS011;8594;52.052;8.354;2022-12-05T00:30:00;87.80;;;29.97;;
16954;SDS011;8594;52.052;8.354;2022-12-05T00:32:27;98.57;;;30.50;;
16954;SDS011;8594;52.052;8.354;2022-12-05T00:34:55;84.13;;;27.67;;
16954;SDS011;8594;52.052;8.354;2022-12-05T00:37:22;80.17;;;29.57;;
16954;SDS011;8594;52.052;8.354;2022-12-05T00:39:50;78.43;;;28.17;;
16954;SDS011;8594;52.052;8.354;2022-12-05T00:42:17;73.83;;;28.37;;
16954;SDS011;8594;52.052;8.354;2022-12-05T00:44:44;82.47;;;28.93;;
16954;SDS011;8594;52.052;8.354;2022-12-05T00:47:14;77.27;;;27.83;;
16954;SDS011;8594;52.052;8.354;2022-12-05T00:49:41;81.57;;;28.80;;
16954;SDS011;8594;52.052;8.354;2022-12-05T00:52:08;70.13;;;27.07;;
16954;SDS011;8594;52.052;8.354;2022-12-05T00:54:35;81.93;;;28.13;;
16954;SDS011;8594;52.052;8.354;2022-12-05T00:57:03;76.67;;;26.83;;
16954;SDS011;8594;52.052;8.354;2022-12-05T00:59:30;78.97;;;29.07;;
16954;SDS011;8594;52.052;8.354;2022-12-05T01:01:57;75.87;;;27.67;;
16954;SDS011;8594;52.052;8.354;2022-12-05T01:04:24;74.90;;;28.03;;
16954;SDS011;8594;52.052;8.354;2022-12-05T01:06:53;77.87;;;27.77;;
16954;SDS011;8594;52.052;8.354;2022-12-05T01:09:22;78.33;;;28.03;;
16954;SDS011;8594;52.052;8.354;2022-12-05T01:11:50;83.00;;;28.57;;
16954;SDS011;8594;52.052;8.354;2022-12-05T01:14:20;76.97;;;28.07;;
16954;SDS011;8594;52.052;8.354;2022-12-05T01:16:50;75.90;;;26.93;;
16954;SDS011;8594;52.052;8.354;2022-12-05T01:19:20;73.60;;;26.80;;
16954;SDS011;8594;52.052;8.354;2022-12-05T01:21:50;78.53;;;27.97;;
16954;SDS011;8594;52.052;8.354;2022-12-05T01:24:18;69.07;;;28.43;;
16954;SDS011;8594;52.052;8.354;2022-12-05T01:26:47;72.70;;;27.83;;
16954;SDS011;8594;52.052;8.354;2022-12-05T01:29:15;68.43;;;26.07;;
16954;SDS011;8594;52.052;8.354;2022-12-05T01:31:46;77.10;;;26.63;;
16954;SDS011;8594;52.052;8.354;2022-12-05T01:34:13;79.40;;;27.80;;
16954;SDS011;8594;52.052;8.354;2022-12-05T01:36:42;82.23;;;28.43;;
16954;SDS011;8594;52.052;8.354;2022-12-05T01:39:10;76.53;;;27.40;;
16954;SDS011;8594;52.052;8.354;2022-12-05T01:41:40;80.07;;;28.03;;
16954;SDS011;8594;52.052;8.354;2022-12-05T01:47:26;73.17;;;28.27;;
16954;SDS011;8594;52.052;8.354;2022-12-05T01:49:55;81.17;;;29.03;;
16954;SDS011;8594;52.052;8.354;2022-12-05T01:52:25;76.90;;;27.40;;
16954;SDS011;8594;52.052;8.354;2022-12-05T01:54:57;79.70;;;27.67;;
16954;SDS011;8594;52.052;8.354;2022-12-05T01:57:38;78.37;;;27.27;;
16954;SDS011;8594;52.052;8.354;2022-12-05T02:00:09;67.43;;;27.13;;
16954;SDS011;8594;52.052;8.354;2022-12-05T02:02:42;77.87;;;26.67;;
16954;SDS011;8594;52.052;8.354;2022-12-05T02:05:15;74.50;;;28.73;;
16954;SDS011;8594;52.052;8.354;2022-12-05T02:07:47;68.23;;;26.63;;
16954;SDS011;8594;52.052;8.354;2022-12-05T02:10:14;83.27;;;28.03;;
16954;SDS011;8594;52.052;8.354;2022-12-05T02:12:41;72.83;;;27.97;;
16954;SDS011;8594;52.052;8.354;2022-12-05T02:15:18;73.07;;;27.60;;
16954;SDS011;8594;52.052;8.354;2022-12-05T02:17:59;70.83;;;28.00;;
16954;SDS011;8594;52.052;8.354;2022-12-05T02:20:45;73.17;;;26.87;;
16954;SDS011;8594;52.052;8.354;2022-12-05T02:23:52;69.13;;;27.23;;
16954;SDS011;8594;52.052;8.354;2022-12-05T02:26:58;71.53;;;28.47;;
16954;SDS011;8594;52.052;8.354;2022-12-05T02:29:54;77.67;;;26.80;;
16954;SDS011;8594;52.052;8.354;2022-12-05T02:32:35;71.30;;;26.17;;
16954;SDS011;8594;52.052;8.354;2022-12-05T02:35:16;68.90;;;26.93;;
16954;SDS011;8594;52.052;8.354;2022-12-05T02:38:00;67.47;;;25.90;;
16954;SDS011;8594;52.052;8.354;2022-12-05T02:40:42;66.30;;;26.10;;
16954;SDS011;8594;52.052;8.354;2022-12-05T02:43:22;68.17;;;25.63;;
16954;SDS011;8594;52.052;8.354;2022-12-05T02:45:59;64.90;;;25.23;;
16954;SDS011;8594;52.052;8.354;2022-12-05T02:48:34;63.27;;;25.33;;
16954;SDS011;8594;52.052;8.354;2022-12-05T02:51:03;67.70;;;24.43;;
16954;SDS011;8594;52.052;8.354;2022-12-05T02:53:34;53.53;;;22.73;;
16954;SDS011;8594;52.052;8.354;2022-12-05T02:56:04;55.50;;;20.93;;
16954;SDS011;8594;52.052;8.354;2022-12-05T02:58:33;61.40;;;23.83;;
16954;SDS011;8594;52.052;8.354;2022-12-05T03:01:08;60.30;;;22.53;;
16954;SDS011;8594;52.052;8.354;2022-12-05T03:03:35;57.37;;;24.53;;
16954;SDS011;8594;52.052;8.354;2022-12-05T03:06:04;61.67;;;24.97;;
16954;SDS011;8594;52.052;8.354;2022-12-05T03:08:38;59.83;;;23.77;;
16954;SDS011;8594;52.052;8.354;2022-12-05T03:11:08;64.03;;;23.67;;
16954;SDS011;8594;52.052;8.354;2022-12-05T03:13:38;59.13;;;24.57;;
16954;SDS011;8594;52.052;8.354;2022-12-05T03:16:13;59.23;;;23.43;;
16954;SDS011;8594;52.052;8.354;2022-12-05T03:18:46;61.10;;;22.47;;
16954;SDS011;8594;52.052;8.354;2022-12-05T03:21:20;54.97;;;22.03;;
16954;SDS011;8594;52.052;8.354;2022-12-05T03:23:57;59.27;;;20.90;;
16954;SDS011;8594;52.052;8.354;2022-12-05T03:26:35;56.43;;;22.67;;
16954;SDS011;8594;52.052;8.354;2022-12-05T03:29:17;61.93;;;23.07;;
16954;SDS011;8594;52.052;8.354;2022-12-05T03:31:53;57.63;;;22.17;;
16954;SDS011;8594;52.052;8.354;2022-12-05T03:34:36;58.03;;;22.87;;
16954;SDS011;8594;52.052;8.354;2022-12-05T03:37:14;52.23;;;22.10;;
16954;SDS011;8594;52.052;8.354;2022-12-05T03:39:53;48.40;;;20.60;;
16954;SDS011;8594;52.052;8.354;2022-12-05T03:42:33;48.37;;;20.17;;
16954;SDS011;8594;52.052;8.354;2022-12-05T03:45:09;55.27;;;23.27;;
16954;SDS011;8594;52.052;8.354;2022-12-05T03:47:43;52.53;;;21.50;;
16954;SDS011;8594;52.052;8.354;2022-12-05T03:50:18;51.93;;;21.60;;
16954;SDS011;8594;52.052;8.354;2022-12-05T03:52:52;53.57;;;21.77;;
16954;SDS011;8594;52.052;8.354;2022-12-05T03:55:25;51.63;;;20.07;;
16954;SDS011;8594;52.052;8.354;2022-12-05T03:57:57;54.47;;;21.87;;
16954;SDS011;8594;52.052;8.354;2022-12-05T04:00:28;50.60;;;21.00;;
16954;SDS011;8594;52.052;8.354;2022-12-05T04:03:03;45.37;;;20.67;;
16954;SDS011;8594;52.052;8.354;2022-12-05T04:05:37;46.40;;;18.87;;
16954;SDS011;8594;52.052;8.354;2022-12-05T04:08:11;53.17;;;20.87;;
16954;SDS011;8594;52.052;8.354;2022-12-05T04:10:45;48.23;;;18.83;;
16954;SDS011;8594;52.052;8.354;2022-12-05T04:13:17;45.67;;;19.17;;
16954;SDS011;8594;52.052;8.354;2022-12-05T04:15:53;39.60;;;17.73;;
16954;SDS011;8594;52.052;8.354;2022-12-05T04:18:47;44.27;;;18.73;;
16954;SDS011;8594;52.052;8.354;2022-12-05T04:21:20;37.67;;;17.23;;
16954;SDS011;8594;52.052;8.354;2022-12-05T04:24:04;42.87;;;17.33;;
16954;SDS011;8594;52.052;8.354;2022-12-05T04:26:55;40.07;;;17.17;;
16954;SDS011;8594;52.052;8.354;2022-12-05T04:29:34;44.50;;;18.70;;
16954;SDS011;8594;52.052;8.354;2022-12-05T04:32:09;39.47;;;17.73;;
16954;SDS011;8594;52.052;8.354;2022-12-05T04:34:41;44.87;;;19.30;;
16954;SDS011;8594;52.052;8.354;2022-12-05T04:37:18;43.13;;;19.60;;
16954;SDS011;8594;52.052;8.354;2022-12-05T04:39:52;43.07;;;18.30;;
16954;SDS011;8594;52.052;8.354;2022-12-05T04:42:25;43.63;;;18.77;;
16954;SDS011;8594;52.052;8.354;2022-12-05T04:44:55;41.03;;;18.03;;
16954;SDS011;8594;52.052;8.354;2022-12-05T04:47:29;39.00;;;18.57;;
16954;SDS011;8594;52.052;8.354;2022-12-05T04:50:06;45.67;;;18.97;;
16954;SDS011;8594;52.052;8.354;2022-12-05T04:52:37;40.40;;;18.23;;
16954;SDS011;8594;52.052;8.354;2022-12-05T04:55:08;39.07;;;18.27;;
16954;SDS011;8594;52.052;8.354;2022-12-05T04:57:39;40.00;;;18.33;;
16954;SDS011;8594;52.052;8.354;2022-12-05T05:00:17;44.43;;;18.57;;
16954;SDS011;8594;52.052;8.354;2022-12-05T05:02:46;39.20;;;16.93;;
16954;SDS011;8594;52.052;8.354;2022-12-05T05:05:19;37.30;;;16.50;;
16954;SDS011;8594;52.052;8.354;2022-12-05T05:07:49;36.57;;;17.43;;
16954;SDS011;8594;52.052;8.354;2022-12-05T05:10:20;44.63;;;17.97;;
16954;SDS011;8594;52.052;8.354;2022-12-05T05:12:56;39.33;;;18.60;;
16954;SDS011;8594;52.052;8.354;2022-12-05T05:15:23;34.33;;;16.70;;
16954;SDS011;8594;52.052;8.354;2022-12-05T05:17:50;37.70;;;17.20;;
16954;SDS011;8594;52.052;8.354;2022-12-05T05:20:17;36.90;;;16.50;;
16954;SDS011;8594;52.052;8.354;2022-12-05T05:22:52;38.93;;;17.83;;
16954;SDS011;8594;52.052;8.354;2022-12-05T05:25:20;37.83;;;18.27;;
16954;SDS011;8594;52.052;8.354;2022-12-05T05:27:49;40.97;;;17.70;;
16954;SDS011;8594;52.052;8.354;2022-12-05T05:30:18;40.53;;;17.37;;
16954;SDS011;8594;52.052;8.354;2022-12-05T05:32:47;37.23;;;17.30;;
16954;SDS011;8594;52.052;8.354;2022-12-05T05:35:14;38.00;;;17.33;;
16954;SDS011;8594;52.052;8.354;2022-12-05T05:37:42;45.93;;;18.30;;
16954;SDS011;8594;52.052;8.354;2022-12-05T05:40:11;39.83;;;17.93;;
16954;SDS011;8594;52.052;8.354;2022-12-05T05:42:40;39.97;;;17.63;;
16954;SDS011;8594;52.052;8.354;2022-12-05T05:45:09;37.20;;;18.07;;
16954;SDS011;8594;52.052;8.354;2022-12-05T05:47:37;37.63;;;17.53;;
16954;SDS011;8594;52.052;8.354;2022-12-05T05:50:05;45.73;;;19.47;;
16954;SDS011;8594;52.052;8.354;2022-12-05T05:52:35;45.10;;;18.53;;
16954;SDS011;8594;52.052;8.354;2022-12-05T05:55:03;45.10;;;19.07;;
16954;SDS011;8594;52.052;8.354;2022-12-05T05:57:33;44.70;;;19.87;;
16954;SDS011;8594;52.052;8.354;2022-12-05T06:00:03;46.27;;;19.37;;
16954;SDS011;8594;52.052;8.354;2022-12-05T06:02:32;52.40;;;20.53;;
16954;SDS011;8594;52.052;8.354;2022-12-05T06:05:00;48.10;;;20.40;;
16954;SDS011;8594;52.052;8.354;2022-12-05T06:07:28;49.03;;;20.90;;
16954;SDS011;8594;52.052;8.354;2022-12-05T06:09:55;43.97;;;19.83;;
16954;SDS011;8594;52.052;8.354;2022-12-05T06:12:22;45.90;;;19.57;;
16954;SDS011;8594;52.052;8.354;2022-12-05T06:14:50;46.33;;;20.13;;
16954;SDS011;8594;52.052;8.354;2022-12-05T06:17:18;47.77;;;19.60;;
16954;SDS011;8594;52.052;8.354;2022-12-05T06:19:45;41.37;;;19.47;;
16954;SDS011;8594;52.052;8.354;2022-12-05T06:22:12;44.53;;;19.53;;
16954;SDS011;8594;52.052;8.354;2022-12-05T06:24:39;49.23;;;21.70;;
16954;SDS011;8594;52.052;8.354;2022-12-05T06:27:05;42.93;;;19.90;;
16954;SDS011;8594;52.052;8.354;2022-12-05T06:29:32;50.77;;;20.73;;
16954;SDS011;8594;52.052;8.354;2022-12-05T06:32:01;48.57;;;20.47;;
16954;SDS011;8594;52.052;8.354;2022-12-05T06:34:28;43.50;;;19.47;;
16954;SDS011;8594;52.052;8.354;2022-12-05T06:36:56;42.70;;;19.23;;
16954;SDS011;8594;52.052;8.354;2022-12-05T06:39:24;41.27;;;18.30;;
16954;SDS011;8594;52.052;8.354;2022-12-05T06:41:51;43.87;;;18.73;;
16954;SDS011;8594;52.052;8.354;2022-12-05T06:44:18;42.30;;;17.53;;
16954;SDS011;8594;52.052;8.354;2022-12-05T06:46:45;35.97;;;18.10;;
16954;SDS011;8594;52.052;8.354;2022-12-05T06:49:14;36.93;;;17.17;;
16954;SDS011;8594;52.052;8.354;2022-12-05T06:51:41;35.00;;;16.00;;
16954;SDS011;8594;52.052;8.354;2022-12-05T06:54:09;34.20;;;16.40;;
16954;SDS011;8594;52.052;8.354;2022-12-05T06:56:37;38.00;;;16.67;;
16954;SDS011;8594;52.052;8.354;2022-12-05T06:59:04;36.17;;;17.17;;
16954;SDS011;8594;52.052;8.354;2022-12-05T07:01:31;41.23;;;17.07;;
16954;SDS011;8594;52.052;8.354;2022-12-05T07:04:05;38.50;;;17.23;;
16954;SDS011;8594;52.052;8.354;2022-12-05T07:06:38;36.33;;;17.13;;
16954;SDS011;8594;52.052;8.354;2022-12-05T07:09:07;34.77;;;16.07;;
16954;SDS011;8594;52.052;8.354;2022-12-05T07:11:34;38.10;;;17.20;;
16954;SDS011;8594;52.052;8.354;2022-12-05T07:14:02;34.10;;;16.70;;
16954;SDS011;8594;52.052;8.354;2022-12-05T07:16:30;41.63;;;17.80;;
16954;SDS011;8594;52.052;8.354;2022-12-05T07:18:57;33.03;;;15.80;;
16954;SDS011;8594;52.052;8.354;2022-12-05T07:21:24;34.37;;;15.33;;
16954;SDS011;8594;52.052;8.354;2022-12-05T07:23:53;33.27;;;15.30;;
16954;SDS011;8594;52.052;8.354;2022-12-05T07:26:21;31.53;;;15.17;;
16954;SDS011;8594;52.052;8.354;2022-12-05T07:28:49;33.90;;;15.50;;
16954;SDS011;8594;52.052;8.354;2022-12-05T07:31:18;34.70;;;18.30;;
16954;SDS011;8594;52.052;8.354;2022-12-05T07:33:47;33.00;;;17.37;;
16954;SDS011;8594;52.052;8.354;2022-12-05T07:36:14;36.10;;;16.27;;
16954;SDS011;8594;52.052;8.354;2022-12-05T07:38:46;28.87;;;14.03;;
16954;SDS011;8594;52.052;8.354;2022-12-05T07:41:16;29.27;;;14.43;;
16954;SDS011;8594;52.052;8.354;2022-12-05T07:43:49;26.20;;;13.30;;
16954;SDS011;8594;52.052;8.354;2022-12-05T07:46:16;26.80;;;13.67;;
16954;SDS011;8594;52.052;8.354;2022-12-05T07:48:43;25.83;;;13.03;;
16954;SDS011;8594;52.052;8.354;2022-12-05T07:51:10;27.83;;;12.97;;
16954;SDS011;8594;52.052;8.354;2022-12-05T07:53:37;25.17;;;13.37;;
16954;SDS011;8594;52.052;8.354;2022-12-05T07:56:08;25.10;;;13.13;;
16954;SDS011;8594;52.052;8.354;2022-12-05T07:58:39;28.27;;;13.27;;
16954;SDS011;8594;52.052;8.354;2022-12-05T08:01:07;23.77;;;12.83;;
16954;SDS011;8594;52.052;8.354;2022-12-05T08:03:36;23.97;;;13.33;;
16954;SDS011;8594;52.052;8.354;2022-12-05T08:06:04;26.53;;;12.40;;
16954;SDS011;8594;52.052;8.354;2022-12-05T08:08:34;22.47;;;12.20;;
16954;SDS011;8594;52.052;8.354;2022-12-05T08:11:02;23.87;;;12.77;;
16954;SDS011;8594;52.052;8.354;2022-12-05T08:13:30;23.20;;;12.17;;
16954;SDS011;8594;52.052;8.354;2022-12-05T08:16:02;23.20;;;12.33;;
16954;SDS011;8594;52.052;8.354;2022-12-05T08:18:31;18.77;;;10.83;;
16954;SDS011;8594;52.052;8.354;2022-12-05T08:21:01;26.00;;;12.10;;
16954;SDS011;8594;52.052;8.354;2022-12-05T08:23:30;18.13;;;10.93;;
16954;SDS011;8594;52.052;8.354;2022-12-05T08:26:02;22.43;;;12.13;;
16954;SDS011;8594;52.052;8.354;2022-12-05T08:28:32;19.93;;;11.57;;
16954;SDS011;8594;52.052;8.354;2022-12-05T08:31:04;23.93;;;12.33;;
16954;SDS011;8594;52.052;8.354;2022-12-05T08:33:34;46.00;;;22.83;;
16954;SDS011;8594;52.052;8.354;2022-12-05T08:36:01;22.13;;;12.23;;
16954;SDS011;8594;52.052;8.354;2022-12-05T08:38:33;19.43;;;11.07;;
16954;SDS011;8594;52.052;8.354;2022-12-05T08:41:04;21.67;;;11.87;;
16954;SDS011;8594;52.052;8.354;2022-12-05T08:43:34;19.83;;;10.57;;
16954;SDS011;8594;52.052;8.354;2022-12-05T08:46:01;19.27;;;10.00;;
16954;SDS011;8594;52.052;8.354;2022-12-05T08:48:31;21.77;;;10.67;;
16954;SDS011;8594;52.052;8.354;2022-12-05T08:51:03;17.30;;;10.00;;
16954;SDS011;8594;52.052;8.354;2022-12-05T08:53:32;15.27;;;8.93;;
16954;SDS011;8594;52.052;8.354;2022-12-05T08:55:59;16.47;;;8.60;;
16954;SDS011;8594;52.052;8.354;2022-12-05T08:58:27;15.73;;;9.27;;
16954;SDS011;8594;52.052;8.354;2022-12-05T09:01:03;16.27;;;9.30;;
16954;SDS011;8594;52.052;8.354;2022-12-05T09:03:32;16.07;;;8.83;;
16954;SDS011;8594;52.052;8.354;2022-12-05T09:06:06;20.50;;;11.47;;
16954;SDS011;8594;52.052;8.354;2022-12-05T09:08:35;17.00;;;9.07;;
16954;SDS011;8594;52.052;8.354;2022-12-05T09:11:04;14.97;;;8.73;;
16954;SDS011;8594;52.052;8.354;2022-12-05T09:13:33;14.63;;;8.43;;
16954;SDS011;8594;52.052;8.354;2022-12-05T09:16:06;18.60;;;10.13;;
16954;SDS011;8594;52.052;8.354;2022-12-05T09:18:34;14.17;;;9.20;;
16954;SDS011;8594;52.052;8.354;2022-12-05T09:21:05;13.80;;;9.00;;
16954;SDS011;8594;52.052;8.354;2022-12-05T09:23:33;15.70;;;9.33;;
16954;SDS011;8594;52.052;8.354;2022-12-05T09:26:00;11.63;;;8.00;;
16954;SDS011;8594;52.052;8.354;2022-12-05T09:28:29;12.73;;;8.30;;
16954;SDS011;8594;52.052;8.354;2022-12-05T09:30:57;15.37;;;8.93;;
16954;SDS011;8594;52.052;8.354;2022-12-05T09:33:28;15.30;;;8.80;;
16954;SDS011;8594;52.052;8.354;2022-12-05T09:35:58;16.73;;;9.27;;
16954;SDS011;8594;52.052;8.354;2022-12-05T09:38:27;12.93;;;7.90;;
16954;SDS011;8594;52.052;8.354;2022-12-05T09:40:56;17.43;;;9.37;;
16954;SDS011;8594;52.052;8.354;2022-12-05T09:43:35;13.20;;;8.00;;
16954;SDS011;8594;52.052;8.354;2022-12-05T09:46:16;14.80;;;8.70;;
16954;SDS011;8594;52.052;8.354;2022-12-05T09:48:55;15.70;;;9.40;;
16954;SDS011;8594;52.052;8.354;2022-12-05T09:51:23;14.37;;;8.90;;
16954;SDS011;8594;52.052;8.354;2022-12-05T09:53:51;14.13;;;9.00;;
16954;SDS011;8594;52.052;8.354;2022-12-05T09:56:20;19.30;;;10.03;;
16954;SDS011;8594;52.052;8.354;2022-12-05T09:58:52;12.07;;;8.33;;
16954;SDS011;8594;52.052;8.354;2022-12-05T10:01:32;16.07;;;8.73;;
16954;SDS011;8594;52.052;8.354;2022-12-05T10:04:13;12.37;;;7.93;;
16954;SDS011;8594;52.052;8.354;2022-12-05T10:06:56;12.27;;;7.20;;
16954;SDS011;8594;52.052;8.354;2022-12-05T10:09:38;18.53;;;9.77;;
16954;SDS011;8594;52.052;8.354;2022-12-05T10:12:36;20.07;;;10.20;;
16954;SDS011;8594;52.052;8.354;2022-12-05T10:15:19;12.30;;;8.73;;
16954;SDS011;8594;52.052;8.354;2022-12-05T10:17:58;13.77;;;7.90;;
16954;SDS011;8594;52.052;8.354;2022-12-05T10:20:30;13.00;;;7.97;;
16954;SDS011;8594;52.052;8.354;2022-12-05T10:23:04;9.13;;;6.80;;
16954;SDS011;8594;52.052;8.354;2022-12-05T10:25:39;9.83;;;6.60;;
16954;SDS011;8594;52.052;8.354;2022-12-05T10:28:10;10.33;;;7.10;;
16954;SDS011;8594;52.052;8.354;2022-12-05T10:30:50;11.33;;;7.33;;
16954;SDS011;8594;52.052;8.354;2022-12-05T10:33:27;11.10;;;7.67;;
16954;SDS011;8594;52.052;8.354;2022-12-05T10:36:09;15.87;;;9.40;;
16954;SDS011;8594;52.052;8.354;2022-12-05T10:38:39;14.20;;;8.67;;
16954;SDS011;8594;52.052;8.354;2022-12-05T10:41:09;14.53;;;8.90;;
16954;SDS011;8594;52.052;8.354;2022-12-05T10:43:40;10.87;;;8.40;;
16954;SDS011;8594;52.052;8.354;2022-12-05T10:46:10;13.13;;;8.50;;
16954;SDS011;8594;52.052;8.354;2022-12-05T10:48:39;16.87;;;9.70;;
16954;SDS011;8594;52.052;8.354;2022-12-05T10:51:12;9.53;;;6.83;;
16954;SDS011;8594;52.052;8.354;2022-12-05T10:53:43;11.90;;;7.33;;
16954;SDS011;8594;52.052;8.354;2022-12-05T10:59:05;11.40;;;7.53;;
16954;SDS011;8594;52.052;8.354;2022-12-05T11:01:34;9.93;;;7.57;;
16954;SDS011;8594;52.052;8.354;2022-12-05T11:04:04;10.40;;;7.53;;
16954;SDS011;8594;52.052;8.354;2022-12-05T11:06:52;10.73;;;7.53;;
16954;SDS011;8594;52.052;8.354;2022-12-05T11:09:24;12.90;;;7.73;;
16954;SDS011;8594;52.052;8.354;2022-12-05T11:12:13;13.20;;;8.53;;
16954;SDS011;8594;52.052;8.354;2022-12-05T11:14:54;11.80;;;7.77;;
16954;SDS011;8594;52.052;8.354;2022-12-05T11:17:25;11.93;;;8.00;;
16954;SDS011;8594;52.052;8.354;2022-12-05T11:19:57;11.23;;;7.53;;
16954;SDS011;8594;52.052;8.354;2022-12-05T11:22:33;13.47;;;7.40;;
16954;SDS011;8594;52.052;8.354;2022-12-05T11:25:00;10.03;;;7.00;;
16954;SDS011;8594;52.052;8.354;2022-12-05T11:27:54;11.50;;;7.40;;
16954;SDS011;8594;52.052;8.354;2022-12-05T11:30:23;12.40;;;7.63;;
16954;SDS011;8594;52.052;8.354;2022-12-05T11:32:59;13.13;;;8.17;;
16954;SDS011;8594;52.052;8.354;2022-12-05T11:35:43;10.70;;;7.43;;
16954;SDS011;8594;52.052;8.354;2022-12-05T11:38:11;12.00;;;7.90;;
16954;SDS011;8594;52.052;8.354;2022-12-05T11:40:45;13.00;;;8.20;;
16954;SDS011;8594;52.052;8.354;2022-12-05T11:43:27;14.77;;;7.67;;
16954;SDS011;8594;52.052;8.354;2022-12-05T11:46:23;11.07;;;7.10;;
16954;SDS011;8594;52.052;8.354;2022-12-05T11:49:07;14.40;;;8.00;;
16954;SDS011;8594;52.052;8.354;2022-12-05T11:51:58;14.30;;;8.50;;
16954;SDS011;8594;52.052;8.354;2022-12-05T11:54:42;11.73;;;7.50;;
16954;SDS011;8594;52.052;8.354;2022-12-05T11:57:27;13.33;;;8.27;;
16954;SDS011;8594;52.052;8.354;2022-12-05T12:00:17;10.10;;;7.43;;
16954;SDS011;8594;52.052;8.354;2022-12-05T12:02:55;13.97;;;7.33;;
16954;SDS011;8594;52.052;8.354;2022-12-05T12:06:19;12.07;;;7.57;;
16954;SDS011;8594;52.052;8.354;2022-12-05T12:09:05;12.10;;;7.47;;
16954;SDS011;8594;52.052;8.354;2022-12-05T12:11:51;11.73;;;7.53;;
16954;SDS011;8594;52.052;8.354;2022-12-05T12:14:30;23.10;;;12.13;;
16954;SDS011;8594;52.052;8.354;2022-12-05T12:17:12;22.63;;;11.57;;
16954;SDS011;8594;52.052;8.354;2022-12-05T12:19:55;19.23;;;9.70;;
16954;SDS011;8594;52.052;8.354;2022-12-05T12:22:51;15.90;;;9.13;;
16954;SDS011;8594;52.052;8.354;2022-12-05T12:25:36;19.50;;;9.80;;
16954;SDS011;8594;52.052;8.354;2022-12-05T12:28:17;13.57;;;8.20;;
16954;SDS011;8594;52.052;8.354;2022-12-05T12:31:04;15.47;;;8.23;;
16954;SDS011;8594;52.052;8.354;2022-12-05T12:33:50;15.07;;;7.97;;
16954;SDS011;8594;52.052;8.354;2022-12-05T12:36:25;15.43;;;9.17;;
16954;SDS011;8594;52.052;8.354;2022-12-05T12:39:00;10.40;;;7.40;;
16954;SDS011;8594;52.052;8.354;2022-12-05T12:41:50;9.27;;;6.70;;
16954;SDS011;8594;52.052;8.354;2022-12-05T12:47:45;12.10;;;7.13;;
16954;SDS011;8594;52.052;8.354;2022-12-05T12:50:30;11.20;;;7.43;;
16954;SDS011;8594;52.052;8.354;2022-12-05T12:53:04;13.93;;;7.43;;
16954;SDS011;8594;52.052;8.354;2022-12-05T12:56:05;12.23;;;7.87;;
16954;SDS011;8594;52.052;8.354;2022-12-05T12:58:48;17.33;;;8.93;;
16954;SDS011;8594;52.052;8.354;2022-12-05T13:01:26;14.80;;;9.20;;
16954;SDS011;8594;52.052;8.354;2022-12-05T13:04:06;12.57;;;7.83;;
16954;SDS011;8594;52.052;8.354;2022-12-05T13:06:40;12.23;;;7.73;;
16954;SDS011;8594;52.052;8.354;2022-12-05T13:09:14;11.80;;;7.37;;
16954;SDS011;8594;52.052;8.354;2022-12-05T13:11:47;9.47;;;7.00;;
16954;SDS011;8594;52.052;8.354;2022-12-05T13:14:17;11.93;;;7.20;;
16954;SDS011;8594;52.052;8.354;2022-12-05T13:16:50;15.10;;;7.97;;
16954;SDS011;8594;52.052;8.354;2022-12-05T13:19:26;11.83;;;7.17;;
16954;SDS011;8594;52.052;8.354;2022-12-05T13:22:02;12.07;;;6.70;;
16954;SDS011;8594;52.052;8.354;2022-12-05T13:24:30;19.07;;;8.30;;
16954;SDS011;8594;52.052;8.354;2022-12-05T13:26:58;10.57;;;7.17;;
16954;SDS011;8594;52.052;8.354;2022-12-05T13:29:29;13.13;;;7.83;;
16954;SDS011;8594;52.052;8.354;2022-12-05T13:32:00;10.53;;;7.00;;
16954;SDS011;8594;52.052;8.354;2022-12-05T13:34:40;9.20;;;6.27;;
16954;SDS011;8594;52.052;8.354;2022-12-05T13:37:15;10.80;;;6.43;;
16954;SDS011;8594;52.052;8.354;2022-12-05T13:40:04;9.03;;;6.23;;
16954;SDS011;8594;52.052;8.354;2022-12-05T13:43:06;10.60;;;6.47;;
16954;SDS011;8594;52.052;8.354;2022-12-05T13:45:35;14.83;;;7.13;;
16954;SDS011;8594;52.052;8.354;2022-12-05T13:48:06;17.13;;;8.17;;
16954;SDS011;8594;52.052;8.354;2022-12-05T13:50:49;17.00;;;8.43;;
16954;SDS011;8594;52.052;8.354;2022-12-05T13:53:25;13.63;;;7.73;;
16954;SDS011;8594;52.052;8.354;2022-12-05T13:56:01;17.57;;;8.07;;
16954;SDS011;8594;52.052;8.354;2022-12-05T13:58:45;15.73;;;7.80;;
16954;SDS011;8594;52.052;8.354;2022-12-05T14:01:40;13.57;;;8.77;;
16954;SDS011;8594;52.052;8.354;2022-12-05T14:04:22;13.53;;;7.30;;
16954;SDS011;8594;52.052;8.354;2022-12-05T14:10:09;11.83;;;7.10;;
16954;SDS011;8594;52.052;8.354;2022-12-05T14:12:48;11.73;;;7.80;;
16954;SDS011;8594;52.052;8.354;2022-12-05T14:15:23;14.40;;;8.10;;
16954;SDS011;8594;52.052;8.354;2022-12-05T14:17:58;23.63;;;8.17;;
16954;SDS011;8594;52.052;8.354;2022-12-05T14:20:35;12.07;;;7.97;;
16954;SDS011;8594;52.052;8.354;2022-12-05T14:23:22;19.63;;;8.80;;
16954;SDS011;8594;52.052;8.354;2022-12-05T14:26:31;19.60;;;9.30;;
16954;SDS011;8594;52.052;8.354;2022-12-05T14:32:12;13.50;;;7.40;;
16954;SDS011;8594;52.052;8.354;2022-12-05T14:34:56;13.27;;;8.43;;
16954;SDS011;8594;52.052;8.354;2022-12-05T14:37:36;16.47;;;9.13;;
16954;SDS011;8594;52.052;8.354;2022-12-05T14:40:16;12.47;;;7.73;;
16954;SDS011;8594;52.052;8.354;2022-12-05T14:42:49;14.73;;;8.93;;
16954;SDS011;8594;52.052;8.354;2022-12-05T14:45:32;20.33;;;9.50;;
16954;SDS011;8594;52.052;8.354;2022-12-05T14:48:04;20.20;;;10.20;;
16954;SDS011;8594;52.052;8.354;2022-12-05T14:50:52;21.73;;;10.80;;
16954;SDS011;8594;52.052;8.354;2022-12-05T14:53:25;14.97;;;9.37;;
16954;SDS011;8594;52.052;8.354;2022-12-05T14:56:09;17.80;;;9.93;;
16954;SDS011;8594;52.052;8.354;2022-12-05T14:58:49;16.67;;;8.97;;
16954;SDS011;8594;52.052;8.354;2022-12-05T15:01:23;15.73;;;8.93;;
16954;SDS011;8594;52.052;8.354;2022-12-05T15:06:46;17.53;;;8.83;;
16954;SDS011;8594;52.052;8.354;2022-12-05T15:09:29;18.40;;;10.07;;
16954;SDS011;8594;52.052;8.354;2022-12-05T15:12:10;13.97;;;9.10;;
16954;SDS011;8594;52.052;8.354;2022-12-05T15:14:46;16.87;;;8.90;;
16954;SDS011;8594;52.052;8.354;2022-12-05T15:17:25;17.90;;;9.10;;
16954;SDS011;8594;52.052;8.354;2022-12-05T15:20:03;15.67;;;8.97;;
16954;SDS011;8594;52.052;8.354;2022-12-05T15:22:39;14.30;;;8.23;;
16954;SDS011;8594;52.052;8.354;2022-12-05T15:25:20;13.33;;;9.53;;
16954;SDS011;8594;52.052;8.354;2022-12-05T15:27:56;13.13;;;8.63;;
16954;SDS011;8594;52.052;8.354;2022-12-05T15:30:28;18.00;;;9.87;;
16954;SDS011;8594;52.052;8.354;2022-12-05T15:32:59;16.63;;;9.13;;
16954;SDS011;8594;52.052;8.354;2022-12-05T15:35:28;22.70;;;11.20;;
16954;SDS011;8594;52.052;8.354;2022-12-05T15:37:59;38.03;;;20.30;;